Time;durP1;ratioP1;P1;durP2;ratioP2;P2;SDS_P1;SDS_P2;PMS_P1;PMS_P2;Temp;Humidity;BMP_temperature;BMP_pressure;BME280_temperature;BME280_humidity;BME280_pressure;Samples;Min_cycle;Max_cycle;Signal;HPM_P1;HPM_P2
2022/12/24 00:01:05;;;;;;;29.27;6.20;;;;;;;8.61;100.00;100637.69;4956825;29;20047;-84
2022/12/24 00:03:31;;;;;;;30.10;6.13;;;;;;;8.54;100.00;100625.28;4956792;29;20020;-87
2022/12/24 00:05:57;;;;;;;38.05;7.45;;;;;;;8.57;100.00;100638.00;4956786;29;20046;-82
2022/12/24 00:08:22;;;;;;;33.42;8.27;;;;;;;8.58;100.00;100642.22;4956699;29;20035;-86
2022/12/24 00:10:50;;;;;;;35.33;6.45;;;;;;;8.47;100.00;100624.81;4956608;29;20042;-85
2022/12/24 00:13:16;;;;;;;30.77;7.13;;;;;;;8.50;100.00;100631.53;4956577;29;20023;-84
2022/12/24 00:15:41;;;;;;;28.48;5.95;;;;;;;8.54;100.00;100645.84;4956109;28;20130;-85
2022/12/24 00:18:06;;;;;;;40.00;8.60;;;;;;;8.50;100.00;100642.66;4956615;29;20078;-85
2022/12/24 00:20:32;;;;;;;50.50;20.25;;;;;;;8.23;100.00;100603.84;4939187;29;20467;-84
2022/12/24 00:22:57;;;;;;;38.88;10.85;;;;;;;8.46;100.00;100646.31;4956366;29;20106;-85
2022/12/24 00:25:22;;;;;;;33.40;6.18;;;;;;;8.32;100.00;100630.78;4956261;29;20102;-85
2022/12/24 00:27:47;;;;;;;31.10;6.63;;;;;;;8.34;100.00;100640.09;4938833;29;20074;-85
2022/12/24 00:30:13;;;;;;;33.58;6.40;;;;;;;8.16;100.00;100615.41;4955980;29;20024;-86
2022/12/24 00:32:38;;;;;;;34.80;7.18;;;;;;;8.45;100.00;100665.22;4956509;29;20032;-84
2022/12/24 00:35:04;;;;;;;34.40;7.45;;;;;;;8.53;100.00;100675.91;4956226;29;20477;-85
2022/12/24 00:37:29;;;;;;;40.55;6.90;;;;;;;8.57;100.00;100685.13;4956244;29;20448;-85
2022/12/24 00:39:54;;;;;;;33.58;6.53;;;;;;;8.60;100.00;100684.97;4955853;29;20031;-85
2022/12/24 00:42:20;;;;;;;30.90;6.75;;;;;;;8.61;100.00;100685.78;4956152;29;20031;-85
2022/12/24 00:44:45;;;;;;;28.27;6.30;;;;;;;8.61;100.00;100690.94;4955953;29;20047;-84
2022/12/24 00:47:10;;;;;;;30.00;6.43;;;;;;;8.60;100.00;100694.44;4956794;29;20049;-85
2022/12/24 00:49:36;;;;;;;34.33;7.25;;;;;;;8.61;100.00;100688.34;4957202;29;20501;-85
2022/12/24 00:52:02;;;;;;;32.35;7.85;;;;;;;8.53;100.00;100677.66;4957074;29;20027;-85
2022/12/24 00:54:27;;;;;;;29.55;7.00;;;;;;;8.55;100.00;100688.69;4957803;29;20031;-85
2022/12/24 00:56:53;;;;;;;30.25;6.40;;;;;;;8.47;100.00;100696.03;4956381;29;20027;-87
2022/12/24 00:59:18;;;;;;;21.35;5.88;;;;;;;8.45;100.00;100708.16;4955987;29;20024;-84
2022/12/24 01:01:43;;;;;;;27.02;5.72;;;;;;;8.41;100.00;100709.25;4956272;29;20191;-88
2022/12/24 01:06:52;;;;;;;31.33;6.75;;;;;;;8.17;100.00;100689.09;4956188;29;20038;-85
2022/12/24 01:09:18;;;;;;;26.15;6.03;;;;;;;8.39;100.00;100719.63;4938636;29;20023;-85
2022/12/24 01:11:45;;;;;;;30.05;6.03;;;;;;;8.40;100.00;100716.13;4955747;29;20045;-85
2022/12/24 01:14:10;;;;;;;28.83;5.60;;;;;;;8.42;100.00;100718.63;4955568;29;20023;-83
2022/12/24 01:16:35;;;;;;;26.95;6.60;;;;;;;8.29;100.00;100700.44;4955453;29;20031;-84
2022/12/24 01:19:01;;;;;;;30.50;6.05;;;;;;;8.42;100.00;100724.59;4955789;29;20050;-85
2022/12/24 01:21:26;;;;;;;37.58;7.68;;;;;;;8.37;100.00;100718.88;4955554;29;20145;-84
2022/12/24 01:23:52;;;;;;;31.73;6.85;;;;;;;8.37;100.00;100728.34;4938457;29;20547;-84
2022/12/24 01:26:17;;;;;;;25.52;6.60;;;;;;;8.29;100.00;100731.31;4955254;29;20027;-82
2022/12/24 01:28:43;;;;;;;25.10;6.53;;;;;;;8.29;100.00;100737.28;4954639;28;20050;-85
2022/12/24 01:31:13;;;;;;;27.48;6.68;;;;;;;8.21;100.00;100736.88;4955283;29;20031;-84
2022/12/24 01:33:39;;;;;;;25.45;6.50;;;;;;;8.17;100.00;100737.97;4955301;29;20486;-85
2022/12/24 01:36:05;;;;;;;26.80;6.32;;;;;;;8.15;100.00;100742.34;4955478;29;20118;-85
2022/12/24 01:38:30;;;;;;;31.80;6.28;;;;;;;8.11;100.00;100748.56;4955273;29;20023;-84
2022/12/24 01:43:40;;;;;;;31.13;6.57;;;;;;;7.99;100.00;100759.50;4955538;29;20394;-84
2022/12/24 01:46:24;;;;;;;30.77;8.00;;;;;;;7.90;100.00;100750.53;4937452;29;20032;-84
2022/12/24 01:49:02;;;;;;;30.20;7.25;;;;;;;7.90;100.00;100760.84;4955269;29;20031;-85
2022/12/24 01:51:47;;;;;;;30.17;7.32;;;;;;;7.82;100.00;100752.69;4962367;23;20039;-83
2022/12/24 01:54:23;;;;;;;27.55;7.38;;;;;;;7.59;100.00;100728.19;4955207;28;20031;-84
2022/12/24 01:56:55;;;;;;;30.63;7.32;;;;;;;7.86;100.00;100766.19;4955253;29;20122;-85
2022/12/24 01:59:21;;;;;;;31.95;7.50;;;;;;;7.67;100.00;100746.63;4954902;29;20023;-85
2022/12/24 02:01:49;;;;;;;44.60;8.45;;;;;;;7.90;100.00;100778.81;4955026;28;20475;-84
2022/12/24 02:04:29;;;;;;;28.35;7.32;;;;;;;7.98;100.00;100781.00;4955005;29;20031;-85
2022/12/24 02:06:55;;;;;;;36.83;7.55;;;;;;;8.10;100.00;100787.22;4954958;28;20390;-82
2022/12/24 02:09:20;;;;;;;33.65;7.38;;;;;;;8.18;100.00;100795.38;4954949;28;20114;-85
2022/12/24 02:11:46;;;;;;;34.03;9.70;;;;;;;8.24;100.00;100779.59;4955005;29;20601;-85
2022/12/24 02:14:13;;;;;;;29.08;8.05;;;;;;;8.16;100.00;100767.16;4954809;29;20122;-83
2022/12/24 02:17:00;;;;;;;35.25;10.75;;;;;;;8.28;100.00;100788.81;4954875;28;20550;-84
2022/12/24 02:19:38;;;;;;;39.80;8.75;;;;;;;8.27;100.00;100792.31;4954683;29;20059;-84
2022/12/24 02:22:14;;;;;;;39.92;8.88;;;;;;;8.21;100.00;100797.78;4954890;29;20039;-85
2022/12/24 02:24:53;;;;;;;38.00;9.20;;;;;;;8.19;100.00;100785.00;4954910;29;20378;-85
2022/12/24 02:27:38;;;;;;;35.20;8.40;;;;;;;8.29;100.00;100788.72;4954608;29;20044;-85
2022/12/24 02:30:12;;;;;;;36.60;7.93;;;;;;;8.29;100.00;100793.06;4858044;29;20401;-85
2022/12/24 02:32:55;;;;;;;42.38;9.20;;;;;;;8.18;100.00;100775.63;4858616;29;20058;-87
2022/12/24 02:35:29;;;;;;;36.65;8.27;;;;;;;8.31;100.00;100791.22;4858426;29;20045;-85
2022/12/24 02:38:03;;;;;;;34.25;8.32;;;;;;;8.28;100.00;100788.81;4843137;29;20034;-85
2022/12/24 02:40:37;;;;;;;34.42;8.13;;;;;;;8.41;100.00;100807.84;4861708;29;20508;-85
2022/12/24 02:43:10;;;;;;;36.20;8.13;;;;;;;8.38;100.00;100794.34;4862229;29;20034;-85
2022/12/24 02:45:38;;;;;;;40.33;9.10;;;;;;;8.32;100.00;100782.59;4846166;29;20050;-84
2022/12/24 02:48:05;;;;;;;38.30;9.27;;;;;;;8.33;100.00;100785.06;4861814;29;20092;-85
2022/12/24 02:50:30;;;;;;;37.70;9.23;;;;;;;8.47;100.00;100814.41;4861937;29;20085;-84
2022/12/24 02:52:56;;;;;;;33.40;8.93;;;;;;;8.45;100.00;100817.06;4846153;29;20053;-82
2022/12/24 02:55:58;;;;;;;36.92;9.07;;;;;;;8.42;100.00;100813.81;4861694;29;20052;-86
2022/12/24 02:58:40;;;;;;;34.05;9.85;;;;;;;8.25;100.00;100797.50;4861587;29;20034;-84
2022/12/24 03:01:35;;;;;;;39.03;8.93;;;;;;;8.42;100.00;100824.94;4861391;29;20105;-85
2022/12/24 03:04:19;;;;;;;34.85;9.20;;;;;;;8.44;100.00;100814.56;4861518;29;20033;-85
2022/12/24 03:06:59;;;;;;;33.38;9.30;;;;;;;8.42;100.00;100821.53;4892932;29;20035;-81
2022/12/24 03:09:31;;;;;;;31.38;8.73;;;;;;;8.42;100.00;100808.69;4957840;29;20035;-73
2022/12/24 03:12:16;;;;;;;;;;;;;;;8.45;100.00;100814.47;4958341;29;20019;-74
2022/12/24 03:14:43;;;;;;;32.08;7.93;;;;;;;8.43;100.00;100812.91;4946958;29;19914;-76
2022/12/24 03:17:09;;;;;;;28.88;7.40;;;;;;;8.37;100.00;100802.97;4957686;29;20078;-73
2022/12/24 03:19:35;;;;;;;29.90;7.75;;;;;;;8.50;100.00;100821.97;4957705;29;20035;-76
2022/12/24 03:22:06;;;;;;;30.40;7.80;;;;;;;8.46;100.00;100813.59;4940207;29;20130;-73
2022/12/24 03:24:31;;;;;;;36.60;8.70;;;;;;;8.44;100.00;100805.09;4957347;29;20111;-74
2022/12/24 03:26:58;;;;;;;33.63;7.90;;;;;;;8.52;100.00;100812.41;4957291;29;20058;-74
2022/12/24 03:29:24;;;;;;;36.88;7.72;;;;;;;8.43;100.00;100797.47;4957548;29;20038;-74
2022/12/24 03:31:52;;;;;;;35.72;9.52;;;;;;;8.57;100.00;100825.88;4957302;28;20020;-74
2022/12/24 03:34:17;;;;;;;33.33;7.85;;;;;;;8.56;100.00;100831.94;4957380;29;20034;-74
2022/12/24 03:36:44;;;;;;;34.30;8.40;;;;;;;8.44;100.00;100814.56;4957398;29;20032;-76
2022/12/24 03:39:10;;;;;;;34.50;8.43;;;;;;;8.44;100.00;100814.56;4957261;29;20522;-78
2022/12/24 03:41:36;;;;;;;31.52;8.85;;;;;;;8.51;100.00;100828.78;4957097;28;20039;-78
2022/12/24 03:44:03;;;;;;;33.53;8.30;;;;;;;8.50;100.00;100824.53;4957391;28;20070;-75
2022/12/24 03:46:28;;;;;;;31.88;7.63;;;;;;;8.57;100.00;100823.31;4957139;28;20171;-74
2022/12/24 03:48:53;;;;;;;29.23;7.80;;;;;;;8.61;100.00;100832.50;4957015;28;20055;-75
2022/12/24 03:51:22;;;;;;;40.08;9.55;;;;;;;8.53;100.00;100819.22;4956402;28;20094;-74
2022/12/24 03:53:47;;;;;;;30.27;8.43;;;;;;;8.63;100.00;100839.22;4956899;28;20047;-84
2022/12/24 03:56:13;;;;;;;33.90;8.10;;;;;;;8.58;100.00;100823.22;4956683;28;20480;-84
2022/12/24 03:58:39;;;;;;;31.55;8.68;;;;;;;8.69;100.00;100842.38;4956919;29;20027;-86
2022/12/24 04:01:04;;;;;;;39.35;8.55;;;;;;;8.74;100.00;100851.50;4956885;29;20035;-86
2022/12/24 04:03:30;;;;;;;31.88;8.45;;;;;;;8.79;100.00;100846.13;4939464;29;20110;-85
2022/12/24 04:06:03;;;;;;;35.35;8.50;;;;;;;8.78;100.00;100841.88;4956684;29;20125;-84
2022/12/24 04:08:29;;;;;;;37.33;9.63;;;;;;;8.75;100.00;100829.16;4956694;29;20111;-85
2022/12/24 04:10:54;;;;;;;31.55;9.40;;;;;;;8.89;100.00;100853.25;4956563;29;20098;-85
2022/12/24 04:13:20;;;;;;;31.20;9.65;;;;;;;8.87;100.00;100849.09;4956715;29;20494;-85
2022/12/24 04:15:45;;;;;;;34.05;9.65;;;;;;;8.87;100.00;100842.19;4956782;29;20107;-85
2022/12/24 04:18:10;;;;;;;33.08;9.27;;;;;;;8.89;100.00;100842.94;4956274;28;20054;-85
2022/12/24 04:20:36;;;;;;;31.42;8.43;;;;;;;9.00;100.00;100862.13;4956482;29;20063;-78
2022/12/24 04:23:01;;;;;;;25.15;9.07;;;;;;;9.00;100.00;100865.53;4956333;29;20042;-85
2022/12/24 04:25:26;;;;;;;30.98;8.70;;;;;;;8.90;100.00;100841.19;4956372;28;20027;-85
2022/12/24 04:27:52;;;;;;;35.78;10.32;;;;;;;8.98;100.00;100858.81;4956520;29;20486;-84
2022/12/24 04:30:17;;;;;;;26.60;8.63;;;;;;;9.04;100.00;100861.03;4956342;28;20490;-81
2022/12/24 04:32:42;;;;;;;35.22;9.25;;;;;;;9.05;100.00;100862.72;4956142;28;20026;-84
2022/12/24 04:35:08;;;;;;;34.78;9.25;;;;;;;9.07;100.00;100861.69;4956169;29;20468;-84
2022/12/24 04:37:34;;;;;;;34.13;10.27;;;;;;;9.08;100.00;100871.09;4956201;28;20387;-85
2022/12/24 04:39:59;;;;;;;32.65;8.82;;;;;;;9.08;100.00;100875.41;4956182;28;20372;-83
2022/12/24 04:42:24;;;;;;;37.45;10.63;;;;;;;9.05;100.00;100873.00;4955871;28;20497;-85
2022/12/24 04:44:49;;;;;;;30.77;8.13;;;;;;;8.93;100.00;100850.50;4956135;29;20082;-85
2022/12/24 04:47:15;;;;;;;33.65;9.38;;;;;;;8.99;100.00;100869.03;4956101;29;20030;-82
2022/12/24 04:49:40;;;;;;;28.98;8.25;;;;;;;8.89;100.00;100858.41;4955021;29;20093;-83
2022/12/24 04:52:05;;;;;;;31.55;9.07;;;;;;;9.03;100.00;100879.97;4955747;29;20043;-85
2022/12/24 04:54:31;;;;;;;28.10;8.02;;;;;;;8.88;100.00;100854.16;4955994;29;20398;-83
2022/12/24 04:56:56;;;;;;;27.95;8.40;;;;;;;8.86;100.00;100871.44;4955827;29;20027;-82
2022/12/24 04:59:22;;;;;;;42.78;9.75;;;;;;;8.77;100.00;100868.56;4955870;28;20098;-85
2022/12/24 05:01:47;;;;;;;29.98;8.15;;;;;;;8.84;100.00;100882.72;4955538;28;20055;-85
2022/12/24 05:04:12;;;;;;;29.05;7.70;;;;;;;8.78;100.00;100880.50;4955474;28;20059;-85
2022/12/24 05:06:38;;;;;;;32.05;8.43;;;;;;;8.69;100.00;100860.41;4955739;28;20027;-85
2022/12/24 05:09:03;;;;;;;24.67;7.38;;;;;;;8.82;100.00;100874.25;4956103;28;20053;-85
2022/12/24 05:11:29;;;;;;;25.88;8.30;;;;;;;8.85;100.00;100882.66;4956627;29;20039;-86
2022/12/24 05:13:55;;;;;;;35.83;9.23;;;;;;;8.76;100.00;100869.47;4956577;29;20027;-85
2022/12/24 05:16:21;;;;;;;33.30;8.50;;;;;;;8.92;100.00;100896.00;4956579;28;20031;-85
2022/12/24 05:18:47;;;;;;;34.00;8.48;;;;;;;8.84;100.00;100875.00;4955649;28;20078;-86
2022/12/24 05:21:18;;;;;;;27.80;8.40;;;;;;;8.95;100.00;100895.88;4956293;28;20110;-84
2022/12/24 05:26:48;;;;;;;26.88;7.75;;;;;;;8.83;100.00;100869.03;4859500;29;20030;-86
2022/12/24 05:29:14;;;;;;;34.08;8.05;;;;;;;8.98;100.00;100884.56;4859335;29;20486;-84
2022/12/24 05:31:41;;;;;;;26.88;7.60;;;;;;;8.95;100.00;100890.72;4859320;29;20029;-84
2022/12/24 05:34:07;;;;;;;25.65;7.07;;;;;;;8.89;100.00;100881.56;4858920;29;20038;-83
2022/12/24 05:36:32;;;;;;;30.95;8.02;;;;;;;8.83;100.00;100868.19;4859250;29;20090;-84
2022/12/24 05:38:58;;;;;;;27.67;7.72;;;;;;;8.91;100.00;100889.22;4859215;29;20045;-85
2022/12/24 05:41:24;;;;;;;32.40;8.55;;;;;;;8.78;100.00;100873.59;4859026;29;20166;-84
2022/12/24 05:43:49;;;;;;;36.95;8.32;;;;;;;8.79;100.00;100884.75;4859117;29;20117;-75
2022/12/24 05:46:17;;;;;;;33.15;8.32;;;;;;;8.81;100.00;100899.19;4858878;29;20033;-73
2022/12/24 05:48:43;;;;;;;31.60;8.38;;;;;;;8.76;100.00;100902.94;4858943;29;20129;-78
2022/12/24 05:51:11;;;;;;;27.73;7.60;;;;;;;8.71;100.00;100905.75;4858848;29;20117;-77
2022/12/24 05:53:37;;;;;;;30.73;8.18;;;;;;;8.73;100.00;100905.66;4842964;29;20141;-84
2022/12/24 05:56:11;;;;;;;29.40;8.32;;;;;;;8.74;100.00;100912.47;4840650;29;20125;-84
2022/12/24 05:58:38;;;;;;;28.35;9.30;;;;;;;8.76;100.00;100915.81;4840519;29;20109;-86
2022/12/24 06:01:04;;;;;;;30.20;8.20;;;;;;;8.76;100.00;100931.25;4901895;29;20050;-79
2022/12/24 06:03:30;;;;;;;26.58;8.70;;;;;;;8.72;100.00;100930.56;4935842;29;20071;-81
2022/12/24 06:06:03;;;;;;;31.00;7.78;;;;;;;8.71;100.00;100933.22;4935879;29;20032;-84
2022/12/24 06:08:30;;;;;;;32.28;9.20;;;;;;;8.72;100.00;100935.72;4935622;29;20435;-87
2022/12/24 06:10:57;;;;;;;28.70;8.55;;;;;;;8.72;100.00;100937.47;4935837;29;20024;-85
2022/12/24 06:13:23;;;;;;;34.75;9.15;;;;;;;8.68;100.00;100934.22;4936351;29;20106;-84
2022/12/24 06:15:48;;;;;;;31.90;9.95;;;;;;;8.74;100.00;100936.47;4939603;29;20379;-84
2022/12/24 06:18:13;;;;;;;25.13;8.90;;;;;;;8.74;100.00;100931.31;4939655;29;20024;-84
2022/12/24 06:20:39;;;;;;;27.63;7.88;;;;;;;8.62;100.00;100914.78;4939297;29;20074;-83
2022/12/24 06:23:04;;;;;;;35.42;10.23;;;;;;;8.79;100.00;100939.63;4922377;29;20046;-85
2022/12/24 06:25:29;;;;;;;34.90;8.68;;;;;;;8.82;100.00;100947.19;4939451;29;20060;-85
2022/12/24 06:27:55;;;;;;;25.20;8.15;;;;;;;8.85;100.00;100939.31;4939471;29;20109;-82
2022/12/24 06:30:20;;;;;;;30.75;8.40;;;;;;;8.85;100.00;100948.78;4939334;29;20129;-79
2022/12/24 06:32:45;;;;;;;29.50;7.55;;;;;;;8.85;100.00;100952.19;4939373;29;20032;-79
2022/12/24 06:35:11;;;;;;;38.35;9.38;;;;;;;8.83;100.00;100956.56;4939142;29;20030;-82
2022/12/24 06:37:36;;;;;;;35.65;8.77;;;;;;;8.78;100.00;100956.00;4939309;29;20027;-85
2022/12/24 06:40:01;;;;;;;26.98;8.15;;;;;;;8.79;100.00;100962.81;4922075;29;20044;-76
2022/12/24 06:42:27;;;;;;;29.35;7.85;;;;;;;8.77;100.00;100954.34;4922243;29;20466;-86
2022/12/24 06:44:52;;;;;;;30.60;8.43;;;;;;;8.84;100.00;100965.97;4939283;29;20031;-83
2022/12/24 06:47:17;;;;;;;29.35;7.88;;;;;;;8.83;100.00;100961.72;4939117;29;20538;-86
2022/12/24 06:49:43;;;;;;;30.00;8.60;;;;;;;8.76;100.00;100959.59;4939055;29;20429;-80
2022/12/24 06:52:08;;;;;;;27.20;7.55;;;;;;;8.75;100.00;100960.47;4943463;29;20400;-81
2022/12/24 06:54:33;;;;;;;35.30;9.32;;;;;;;8.80;100.00;100966.22;4958073;29;20024;-78
2022/12/24 06:56:59;;;;;;;28.70;8.27;;;;;;;8.72;100.00;100963.22;4958174;28;20035;-77
2022/12/24 06:59:24;;;;;;;28.20;7.82;;;;;;;8.75;100.00;100966.47;4958181;29;20062;-77
2022/12/24 07:01:49;;;;;;;31.92;8.23;;;;;;;8.64;100.00;100955.88;4958344;28;20408;-81
2022/12/24 07:04:15;;;;;;;32.75;8.68;;;;;;;8.65;100.00;100977.31;4958069;29;20118;-86
2022/12/24 07:06:41;;;;;;;29.20;7.93;;;;;;;8.57;100.00;100978.56;4957717;29;20027;-79
2022/12/24 07:09:06;;;;;;;30.55;8.85;;;;;;;8.51;100.00;100975.47;4957960;29;20082;-76
2022/12/24 07:11:31;;;;;;;29.23;7.63;;;;;;;8.55;100.00;100975.25;4957693;29;20035;-74
2022/12/24 07:13:57;;;;;;;32.13;7.90;;;;;;;8.60;100.00;100990.44;4957887;29;20035;-75
2022/12/24 07:16:22;;;;;;;35.75;8.18;;;;;;;8.50;100.00;100972.06;4957901;28;20110;-78
2022/12/24 07:18:47;;;;;;;30.25;8.55;;;;;;;8.60;100.00;100988.69;4957668;29;20055;-76
2022/12/24 07:21:13;;;;;;;32.22;8.38;;;;;;;8.39;100.00;100961.50;4957488;29;20051;-76
2022/12/24 07:23:38;;;;;;;26.63;7.78;;;;;;;8.40;100.00;100976.03;4957700;28;20071;-75
2022/12/24 07:26:05;;;;;;;30.33;7.68;;;;;;;8.47;100.00;100997.13;4956480;28;20038;-76
2022/12/24 07:28:30;;;;;;;35.60;8.32;;;;;;;8.46;100.00;100998.88;4957801;29;20078;-75
2022/12/24 07:30:57;;;;;;;29.90;8.07;;;;;;;8.39;100.00;100986.41;4957742;28;20035;-77
2022/12/24 07:33:24;;;;;;;44.03;9.00;;;;;;;8.38;100.00;101002.75;4940296;29;20035;-75
2022/12/24 07:36:00;;;;;;;35.63;7.78;;;;;;;8.31;100.00;101015.06;4958099;28;20047;-78
2022/12/24 07:38:26;;;;;;;28.13;8.52;;;;;;;8.19;100.00;101005.38;4957386;29;20110;-75
2022/12/24 07:40:51;;;;;;;31.55;7.88;;;;;;;8.22;100.00;101012.94;4957063;28;20053;-76
2022/12/24 07:43:16;;;;;;;33.53;7.95;;;;;;;8.16;100.00;101031.25;4957500;29;20035;-77
2022/12/24 07:45:41;;;;;;;32.10;9.52;;;;;;;8.08;100.00;101026.50;4957465;28;20039;-77
2022/12/24 07:48:07;;;;;;;36.88;7.95;;;;;;;8.03;100.00;101024.16;4957313;29;20486;-78
2022/12/24 07:50:32;;;;;;;36.60;9.05;;;;;;;8.04;100.00;101025.81;4939850;29;20027;-75
2022/12/24 07:52:57;;;;;;;37.92;9.13;;;;;;;7.82;100.00;101004.63;4956984;28;20047;-79
2022/12/24 07:55:23;;;;;;;36.90;8.45;;;;;;;7.99;100.00;101045.78;4957083;28;20067;-76
2022/12/24 07:57:48;;;;;;;37.67;7.13;;;;;;;7.98;100.00;101056.97;4956899;28;20033;-81
2022/12/24 08:00:14;;;;;;;31.95;7.57;;;;;;;7.98;100.00;101051.00;4957005;29;20027;-77
2022/12/24 08:02:39;;;;;;;31.38;7.40;;;;;;;8.13;100.00;101062.28;4957084;29;20031;-76
2022/12/24 08:05:05;;;;;;;33.03;7.70;;;;;;;8.13;100.00;101075.13;4957073;28;20032;-81
2022/12/24 08:07:30;;;;;;;37.92;9.18;;;;;;;8.03;100.00;101059.31;4956609;29;20035;-76
2022/12/24 08:09:56;;;;;;;34.45;8.25;;;;;;;8.22;100.00;101079.84;4956664;29;20090;-79
2022/12/24 08:12:22;;;;;;;28.33;7.07;;;;;;;8.12;100.00;101068.31;4956671;28;20111;-77
2022/12/24 08:14:47;;;;;;;30.85;8.15;;;;;;;8.25;100.00;101077.09;4956624;29;20412;-83
2022/12/24 08:17:12;;;;;;;36.65;7.50;;;;;;;8.23;100.00;101077.19;4956795;29;20058;-84
2022/12/24 08:19:38;;;;;;;36.80;9.02;;;;;;;8.30;100.00;101099.13;4956581;29;20467;-84
2022/12/24 08:22:03;;;;;;;32.65;8.27;;;;;;;8.32;100.00;101106.78;4956242;29;20023;-82
2022/12/24 08:24:28;;;;;;;34.88;8.35;;;;;;;8.34;100.00;101107.53;4956430;28;20024;-88
2022/12/24 08:26:54;;;;;;;30.15;8.35;;;;;;;8.34;100.00;101105.81;4956473;28;20070;-83
2022/12/24 08:29:19;;;;;;;28.00;8.20;;;;;;;8.23;100.00;101077.19;4956334;29;20059;-86
2022/12/24 08:31:44;;;;;;;34.80;7.80;;;;;;;8.43;100.00;101109.69;4956448;28;20070;-86
2022/12/24 08:34:10;;;;;;;35.47;7.88;;;;;;;8.43;100.00;101119.13;4938750;29;20039;-87
2022/12/24 08:36:35;;;;;;;31.63;7.97;;;;;;;8.42;100.00;101127.78;4955826;28;20479;-83
2022/12/24 08:39:02;;;;;;;28.08;6.82;;;;;;;8.43;100.00;101125.13;4956222;29;20443;-79
2022/12/24 08:41:31;;;;;;;39.80;9.13;;;;;;;8.45;100.00;101118.16;4938928;29;20110;-86
2022/12/24 08:43:58;;;;;;;34.28;8.30;;;;;;;8.47;100.00;101124.09;4954807;28;20103;-83
2022/12/24 08:46:23;;;;;;;31.70;7.85;;;;;;;8.49;100.00;101126.56;4956257;29;20027;-86
2022/12/24 08:48:49;;;;;;;32.58;6.97;;;;;;;8.47;100.00;101128.41;4956352;29;20037;-85
2022/12/24 08:51:14;;;;;;;33.47;6.90;;;;;;;8.45;100.00;101132.75;4955797;29;20027;-79
2022/12/24 08:53:40;;;;;;;37.20;8.98;;;;;;;8.43;100.00;101139.72;4955446;29;20075;-85
2022/12/24 08:56:08;;;;;;;33.35;7.65;;;;;;;8.25;100.00;101102.81;4955837;29;20042;-83
2022/12/24 08:58:34;;;;;;;35.75;8.20;;;;;;;8.46;100.00;101134.44;4955661;29;20027;-83
2022/12/24 09:01:00;;;;;;;30.58;8.60;;;;;;;8.50;100.00;101117.94;4955869;29;20034;-73
2022/12/24 09:03:26;;;;;;;36.55;9.85;;;;;;;8.76;100.00;101150.94;4937888;29;20039;-79
2022/12/24 09:05:52;;;;;;;30.00;8.23;;;;;;;8.84;100.00;101146.22;4955609;29;20046;-82
2022/12/24 09:08:18;;;;;;;31.20;8.80;;;;;;;8.64;100.00;101112.91;4955644;29;20027;-84
2022/12/24 09:10:43;;;;;;;30.33;8.63;;;;;;;8.83;100.00;101151.44;4955473;29;20082;-80
2022/12/24 09:13:09;;;;;;;33.05;9.25;;;;;;;8.75;100.00;101157.00;4955652;29;20031;-80
2022/12/24 09:15:34;;;;;;;33.97;8.85;;;;;;;8.78;100.00;101154.28;4955396;29;20172;-78
2022/12/24 09:18:00;;;;;;;31.75;8.88;;;;;;;8.90;100.00;101160.53;4955219;29;20066;-76
2022/12/24 09:20:25;;;;;;;31.83;8.93;;;;;;;9.11;100.00;101168.91;4955314;29;20043;-80
2022/12/24 09:22:50;;;;;;;30.35;9.32;;;;;;;9.11;100.00;101169.75;4955273;29;20561;-85
2022/12/24 09:25:16;;;;;;;28.80;9.05;;;;;;;9.07;100.00;101177.72;4955712;29;20059;-86
2022/12/24 09:27:41;;;;;;;35.20;9.48;;;;;;;9.02;100.00;101188.25;4955359;29;20023;-85
2022/12/24 09:30:07;;;;;;;33.08;9.85;;;;;;;8.98;100.00;101189.31;4955146;29;20031;-81
2022/12/24 09:32:33;;;;;;;32.42;8.95;;;;;;;8.84;100.00;101171.13;4955947;29;20062;-87
2022/12/24 09:34:59;;;;;;;29.25;8.73;;;;;;;9.09;100.00;101201.66;4955631;29;20026;-84
2022/12/24 09:37:24;;;;;;;32.53;8.90;;;;;;;9.09;100.00;101196.50;4955046;29;20035;-85
2022/12/24 09:39:49;;;;;;;31.15;9.00;;;;;;;9.16;100.00;101205.59;4955061;29;20045;-82
2022/12/24 09:42:45;;;;;;;32.35;8.30;;;;;;;9.04;100.00;101186.41;4955118;29;20027;-85
2022/12/24 09:45:20;;;;;;;26.67;7.45;;;;;;;9.25;100.00;101212.03;4955024;29;20554;-79
2022/12/24 09:47:51;;;;;;;29.98;9.15;;;;;;;9.17;100.00;101202.94;4955003;28;20078;-84
2022/12/24 09:50:26;;;;;;;36.85;8.10;;;;;;;9.34;100.00;101217.53;4955031;29;20027;-83
2022/12/24 09:52:53;;;;;;;31.20;7.22;;;;;;;9.42;100.00;101225.69;4937700;29;20047;-85
2022/12/24 09:55:27;;;;;;;29.95;8.27;;;;;;;9.24;100.00;101187.97;4954935;29;20059;-86
2022/12/24 09:57:54;;;;;;;34.97;9.90;;;;;;;9.36;100.00;101223.44;4955072;29;20078;-87
2022/12/24 10:00:23;;;;;;;30.50;8.70;;;;;;;9.32;100.00;101236.56;4954857;29;20522;-85
2022/12/24 10:02:48;;;;;;;25.98;7.63;;;;;;;9.26;100.00;101224.00;4955151;29;20027;-85
2022/12/24 10:05:16;;;;;;;32.78;9.05;;;;;;;9.22;100.00;101243.91;4955009;29;20032;-84
2022/12/24 10:08:02;;;;;;;31.45;8.50;;;;;;;9.23;100.00;101239.59;4955022;29;20035;-85
2022/12/24 10:10:41;;;;;;;31.42;7.72;;;;;;;9.27;100.00;101223.09;4954900;29;20487;-84
2022/12/24 10:13:18;;;;;;;36.35;10.05;;;;;;;9.46;100.00;101224.63;4937434;29;20391;-84
2022/12/24 10:16:02;;;;;;;32.53;8.63;;;;;;;9.71;100.00;101236.22;4954917;29;20082;-83
2022/12/24 10:18:41;;;;;;;33.55;7.15;;;;;;;9.83;100.00;101238.16;4954584;29;20027;-74
2022/12/24 10:21:43;;;;;;;37.47;9.15;;;;;;;9.91;100.00;101235.16;4937589;29;20166;-76
2022/12/24 10:24:17;;;;;;;30.73;9.40;;;;;;;9.90;100.00;101230.94;4954630;28;20023;-76
2022/12/24 10:26:43;;;;;;;29.50;8.88;;;;;;;10.03;100.00;101219.06;4954812;29;20388;-76
2022/12/24 10:29:17;;;;;;;33.17;8.85;;;;;;;10.06;100.00;101222.28;4954542;28;20025;-77
2022/12/24 10:32:05;;;;;;;25.73;8.52;;;;;;;10.09;100.00;101226.44;4954941;29;20094;-78
2022/12/24 10:34:37;;;;;;;30.55;7.82;;;;;;;10.18;100.00;101228.53;4954838;29;20027;-76
2022/12/24 10:37:03;;;;;;;34.03;8.88;;;;;;;10.27;100.00;101233.22;4954751;29;20035;-77
2022/12/24 10:39:29;;;;;;;29.30;9.02;;;;;;;10.22;100.00;101236.94;4954269;28;20023;-78
2022/12/24 10:41:57;;;;;;;24.25;7.30;;;;;;;10.03;100.00;101211.31;4937336;29;20082;-75
2022/12/24 10:44:26;;;;;;;29.85;8.10;;;;;;;10.04;100.00;101237.03;4954659;29;20024;-73
2022/12/24 10:46:52;;;;;;;36.10;9.43;;;;;;;10.02;100.00;101236.25;4954766;29;20171;-74
2022/12/24 10:49:33;;;;;;;28.85;8.85;;;;;;;9.94;100.00;101233.28;4954760;29;20087;-75
2022/12/24 10:52:04;;;;;;;34.22;9.27;;;;;;;10.04;100.00;101242.19;4954396;28;20050;-75
2022/12/24 10:54:37;;;;;;;47.40;9.40;;;;;;;10.01;100.00;101234.59;4954533;29;20054;-74
2022/12/24 10:57:04;;;;;;;28.45;8.13;;;;;;;9.99;100.00;101241.59;4954527;29;20066;-75
2022/12/24 10:59:32;;;;;;;30.05;7.78;;;;;;;10.08;100.00;101242.84;4955179;28;20062;-75
2022/12/24 11:01:59;;;;;;;33.28;9.73;;;;;;;10.22;100.00;101244.69;4958108;28;20089;-80
2022/12/24 11:04:28;;;;;;;24.92;7.68;;;;;;;10.24;100.00;101240.31;4958102;29;20023;-75
2022/12/24 11:06:58;;;;;;;33.70;8.13;;;;;;;10.21;100.00;101241.25;4957855;29;20483;-76
2022/12/24 11:09:35;;;;;;;32.45;9.00;;;;;;;10.15;100.00;101246.75;4957860;29;20130;-79
2022/12/24 11:12:04;;;;;;;32.20;8.25;;;;;;;9.94;100.00;101216.97;4957876;28;20051;-81
2022/12/24 11:14:36;;;;;;;31.00;7.60;;;;;;;10.12;100.00;101249.50;4957752;29;20102;-79
2022/12/24 11:17:03;;;;;;;29.45;7.90;;;;;;;10.09;100.00;101254.81;4957872;29;20471;-83
2022/12/24 11:19:32;;;;;;;24.38;7.57;;;;;;;10.09;100.00;101251.41;4957603;28;20035;-83
2022/12/24 11:22:01;;;;;;;22.75;6.22;;;;;;;10.10;100.00;101255.66;4957685;29;20045;-84
2022/12/24 11:24:37;;;;;;;26.25;7.18;;;;;;;10.03;100.00;101244.84;4957349;28;20055;-82
2022/12/24 11:27:40;;;;;;;31.00;7.57;;;;;;;10.04;100.00;101254.25;4940529;29;20032;-85
2022/12/24 11:30:21;;;;;;;26.90;7.28;;;;;;;9.89;100.00;101239.59;4861152;29;20053;-84